Time;durP1;ratioP1;P1;durP2;ratioP2;P2;SDS_P1;SDS_P2;PMS_P1;PMS_P2;Temp;Humidity;BMP_temperature;BMP_pressure;BME280_temperature;BME280_humidity;BME280_pressure;Samples;Min_cycle;Max_cycle;Signal;HPM_P1;HPM_P2
2023/12/25 00:00:42;;;;;;;16.77;3.45;;;11.90;92.60;;;;;;4900391;29;20040;-79
2023/12/25 00:03:08;;;;;;;18.23;3.60;;;11.90;92.50;;;;;;4881927;29;20127;-79
2023/12/25 00:05:33;;;;;;;13.90;3.13;;;11.90;92.50;;;;;;4882599;29;20039;-79
2023/12/25 00:07:59;;;;;;;14.77;3.10;;;11.90;92.50;;;;;;4899752;29;20072;-79
2023/12/25 00:10:24;;;;;;;14.98;3.20;;;11.80;92.40;;;;;;4884583;29;20049;-79
2023/12/25 00:12:50;;;;;;;22.10;4.97;;;11.80;92.40;;;;;;4884378;29;20040;-80
2023/12/25 00:15:15;;;;;;;16.08;4.35;;;11.80;92.50;;;;;;4883817;29;20052;-79
2023/12/25 00:17:41;;;;;;;14.85;3.38;;;11.80;92.40;;;;;;4883110;29;20136;-78
2023/12/25 00:20:07;;;;;;;15.32;3.25;;;11.80;92.40;;;;;;4882336;29;20055;-79
2023/12/25 00:22:33;;;;;;;13.68;3.13;;;11.80;92.40;;;;;;4875107;29;20071;-79
2023/12/25 00:24:58;;;;;;;11.60;2.60;;;11.80;92.30;;;;;;4882993;29;20056;-79
2023/12/25 00:27:24;;;;;;;11.30;2.63;;;11.80;92.30;;;;;;4882702;29;20045;-78
2023/12/25 00:29:49;;;;;;;12.90;3.45;;;11.80;92.20;;;;;;4882042;29;20496;-79
2023/12/25 00:32:16;;;;;;;10.27;2.15;;;11.80;92.20;;;;;;4883433;29;20056;-80
2023/12/25 00:34:42;;;;;;;15.25;2.75;;;11.70;92.10;;;;;;4898750;29;20182;-79
2023/12/25 00:37:08;;;;;;;12.35;3.17;;;11.70;92.10;;;;;;4884101;29;20041;-79
2023/12/25 00:39:34;;;;;;;10.13;2.15;;;11.70;92.00;;;;;;4881860;29;20033;-79
2023/12/25 00:41:59;;;;;;;12.73;2.38;;;11.70;92.00;;;;;;4882031;29;20135;-78
2023/12/25 00:44:25;;;;;;;9.85;2.53;;;11.70;91.90;;;;;;4882754;29;20041;-79
2023/12/25 00:46:50;;;;;;;12.50;2.33;;;11.70;91.90;;;;;;4882549;29;20048;-79
2023/12/25 00:49:18;;;;;;;11.93;2.70;;;12.10;92.00;;;;;;4882361;29;20051;-79
2023/12/25 00:51:44;;;;;;;9.80;2.28;;;11.70;91.80;;;;;;4879981;29;20499;-78
2023/12/25 00:54:09;;;;;;;13.20;3.03;;;11.60;91.70;;;;;;4897779;29;20045;-79
2023/12/25 00:56:35;;;;;;;14.68;3.33;;;11.60;91.70;;;;;;4881889;29;20064;-79
2023/12/25 00:59:00;;;;;;;14.75;3.40;;;11.60;91.70;;;;;;4882425;29;20048;-79
2023/12/25 01:01:26;;;;;;;14.25;3.42;;;11.60;91.60;;;;;;4881799;29;20496;-79
2023/12/25 01:03:51;;;;;;;9.52;2.38;;;11.60;91.60;;;;;;4881761;29;20380;-79
2023/12/25 01:06:17;;;;;;;14.65;2.47;;;11.60;91.70;;;;;;4882304;29;20048;-79
2023/12/25 01:08:43;;;;;;;9.75;2.35;;;11.60;91.70;;;;;;4881561;29;20043;-79
2023/12/25 01:11:08;;;;;;;14.73;3.45;;;11.60;91.70;;;;;;4883965;29;20407;-80
2023/12/25 01:13:34;;;;;;;11.73;2.50;;;11.50;91.70;;;;;;4884539;29;20128;-80
2023/12/25 01:15:59;;;;;;;19.75;3.53;;;11.50;91.70;;;;;;4883066;29;20052;-79
2023/12/25 01:18:25;;;;;;;19.00;3.35;;;11.50;91.80;;;;;;4883505;29;20037;-79
2023/12/25 01:20:51;;;;;;;13.30;3.05;;;11.50;91.80;;;;;;4883624;29;20400;-80
2023/12/25 01:23:16;;;;;;;14.95;3.42;;;11.90;92.00;;;;;;4868394;29;20040;-79
2023/12/25 01:25:42;;;;;;;13.27;2.83;;;11.50;91.90;;;;;;4884317;29;20496;-79
2023/12/25 01:28:07;;;;;;;15.00;3.95;;;11.50;91.90;;;;;;4884522;29;20123;-80
2023/12/25 01:30:33;;;;;;;14.25;2.90;;;11.50;91.90;;;;;;4900329;29;20047;-79
2023/12/25 01:32:58;;;;;;;12.65;2.60;;;12.10;92.10;;;;;;4868297;29;20049;-79
2023/12/25 01:35:24;;;;;;;7.75;2.20;;;11.50;92.00;;;;;;4883734;29;20045;-79
2023/12/25 01:37:50;;;;;;;11.18;2.78;;;11.50;92.00;;;;;;4883636;29;20045;-79
2023/12/25 01:40:17;;;;;;;11.23;2.28;;;11.50;92.00;;;;;;4873993;29;20056;-79
2023/12/25 01:42:42;;;;;;;11.88;2.88;;;11.50;92.00;;;;;;4899246;29;20523;-79
2023/12/25 01:45:10;;;;;;;11.65;2.17;;;11.70;92.20;;;;;;4882815;29;20037;-79
2023/12/25 01:47:36;;;;;;;16.73;3.33;;;11.50;91.90;;;;;;4883362;29;20044;-79
2023/12/25 01:50:04;;;;;;;13.35;2.53;;;11.50;91.90;;;;;;4881380;29;20476;-79
2023/12/25 01:52:30;;;;;;;12.55;2.33;;;11.40;91.80;;;;;;4883414;29;20040;-79
2023/12/25 01:54:57;;;;;;;9.35;2.00;;;11.50;91.90;;;;;;4882868;29;20408;-79
2023/12/25 01:57:25;;;;;;;13.80;3.25;;;11.40;91.80;;;;;;4883111;29;20048;-80
2023/12/25 01:59:50;;;;;;;19.25;4.30;;;11.40;91.80;;;;;;4881738;29;20052;-79
2023/12/25 02:02:18;;;;;;;10.82;2.15;;;11.50;91.80;;;;;;4868120;29;20124;-79
2023/12/25 02:04:44;;;;;;;13.30;2.95;;;11.40;91.80;;;;;;4883509;29;20136;-79
2023/12/25 02:07:11;;;;;;;10.23;2.35;;;11.40;91.80;;;;;;4882683;29;20033;-79
2023/12/25 02:09:36;;;;;;;9.13;1.92;;;11.40;91.80;;;;;;4867092;29;20036;-79
2023/12/25 02:12:02;;;;;;;10.30;2.75;;;11.40;91.80;;;;;;4867383;29;20044;-79
2023/12/25 02:14:28;;;;;;;11.93;2.90;;;11.40;91.70;;;;;;4882362;29;20037;-79
2023/12/25 02:16:54;;;;;;;9.95;2.28;;;11.40;91.70;;;;;;4882248;29;20044;-79
2023/12/25 02:19:39;;;;;;;10.88;2.15;;;11.40;91.60;;;;;;4882347;29;20400;-79
2023/12/25 02:22:09;;;;;;;9.70;2.25;;;11.40;91.60;;;;;;4882056;29;20044;-79
2023/12/25 02:25:07;;;;;;;9.60;2.28;;;11.40;91.60;;;;;;4882089;29;20051;-79
2023/12/25 02:27:33;;;;;;;10.38;1.67;;;11.40;91.50;;;;;;4881916;29;20044;-80
2023/12/25 02:29:58;;;;;;;8.15;1.80;;;11.80;91.60;;;;;;4865889;29;20081;-79
2023/12/25 02:32:24;;;;;;;8.88;2.22;;;11.40;91.50;;;;;;4882790;29;20033;-79
2023/12/25 02:34:50;;;;;;;9.77;1.88;;;11.40;91.50;;;;;;4882163;29;20129;-79
2023/12/25 02:37:16;;;;;;;8.23;2.38;;;11.40;91.40;;;;;;4881947;29;20052;-80
2023/12/25 02:39:42;;;;;;;11.63;2.00;;;11.60;91.50;;;;;;4866345;29;20048;-79
2023/12/25 02:42:07;;;;;;;5.93;2.00;;;11.40;91.40;;;;;;4881650;29;20384;-79
2023/12/25 02:44:33;;;;;;;8.90;1.90;;;11.40;91.40;;;;;;4881674;29;20037;-79
2023/12/25 02:46:58;;;;;;;13.60;2.75;;;11.40;91.40;;;;;;4881731;29;20111;-79
2023/12/25 02:49:24;;;;;;;6.72;1.63;;;11.40;91.30;;;;;;4897118;29;20045;-79
2023/12/25 02:51:50;;;;;;;9.23;1.92;;;11.40;91.30;;;;;;4881394;29;20180;-79
2023/12/25 02:54:15;;;;;;;8.52;1.60;;;11.40;91.30;;;;;;4897782;29;20044;-79
2023/12/25 02:56:41;;;;;;;9.82;1.75;;;11.30;91.10;;;;;;4882448;29;20073;-79
2023/12/25 02:59:06;;;;;;;10.90;2.00;;;11.40;91.10;;;;;;4882048;29;20124;-80
2023/12/25 03:01:32;;;;;;;11.82;2.65;;;11.80;91.10;;;;;;4880113;29;20381;-80
2023/12/25 03:03:58;;;;;;;8.88;2.05;;;11.30;91.00;;;;;;4881438;29;20044;-79
2023/12/25 03:06:24;;;;;;;8.88;1.98;;;11.30;90.90;;;;;;4882595;29;20084;-79
2023/12/25 03:08:49;;;;;;;10.50;1.58;;;11.30;90.80;;;;;;4882917;29;20044;-79
2023/12/25 03:11:15;;;;;;;9.10;1.65;;;11.80;90.90;;;;;;4883189;29;20040;-79
2023/12/25 03:13:41;;;;;;;9.13;1.95;;;11.30;90.70;;;;;;4897871;29;20041;-79
2023/12/25 03:16:07;;;;;;;10.93;2.00;;;11.30;90.70;;;;;;4882703;29;20052;-79
2023/12/25 03:18:33;;;;;;;7.70;1.70;;;11.40;90.60;;;;;;4882312;29;20037;-79
2023/12/25 03:20:59;;;;;;;8.02;1.85;;;11.30;90.50;;;;;;4866041;29;20045;-79
2023/12/25 03:23:25;;;;;;;9.02;1.50;;;11.30;90.50;;;;;;4882352;29;20036;-79
2023/12/25 03:25:51;;;;;;;10.52;1.88;;;11.30;90.40;;;;;;4870275;29;20037;-79
2023/12/25 03:28:16;;;;;;;9.27;2.30;;;11.30;90.40;;;;;;4884655;29;20407;-79
2023/12/25 03:30:42;;;;;;;5.70;1.20;;;11.40;90.40;;;;;;4885350;29;20092;-79
2023/12/25 03:33:07;;;;;;;7.10;1.98;;;11.30;90.40;;;;;;4885984;29;20051;-79
2023/12/25 03:35:34;;;;;;;8.27;1.75;;;11.30;90.40;;;;;;4885195;29;20040;-79
2023/12/25 03:38:00;;;;;;;7.75;1.52;;;11.30;90.30;;;;;;4883426;29;20065;-79
2023/12/25 03:40:25;;;;;;;7.05;1.55;;;11.30;90.30;;;;;;4885116;29;20048;-79
2023/12/25 03:42:55;;;;;;;8.52;1.85;;;11.40;90.30;;;;;;4885448;29;20404;-79
2023/12/25 03:45:21;;;;;;;8.57;1.23;;;11.30;90.30;;;;;;4885419;29;20079;-79
2023/12/25 03:47:47;;;;;;;9.38;1.95;;;11.30;90.30;;;;;;4885686;29;20045;-79
2023/12/25 03:50:13;;;;;;;10.77;1.70;;;11.30;90.30;;;;;;4869582;29;20043;-79
2023/12/25 03:52:38;;;;;;;7.13;1.30;;;11.30;90.30;;;;;;4875401;29;20092;-80
2023/12/25 03:55:04;;;;;;;8.70;1.67;;;11.30;90.30;;;;;;4870061;29;20041;-79
2023/12/25 03:57:30;;;;;;;7.85;1.65;;;11.30;90.30;;;;;;4870900;29;20048;-79
2023/12/25 03:59:55;;;;;;;10.68;1.88;;;11.30;90.20;;;;;;4885197;29;20052;-79
2023/12/25 04:02:21;;;;;;;10.10;1.48;;;11.30;90.30;;;;;;4870539;29;20040;-79
2023/12/25 04:04:47;;;;;;;9.25;1.42;;;11.30;90.20;;;;;;4885354;29;20049;-79
2023/12/25 04:07:14;;;;;;;9.95;1.98;;;11.30;90.20;;;;;;4892665;29;20052;-79
2023/12/25 04:09:41;;;;;;;9.65;1.35;;;11.40;90.30;;;;;;4895469;29;20041;-79
2023/12/25 04:12:06;;;;;;;11.32;1.63;;;11.30;90.30;;;;;;4892130;29;20051;-79
2023/12/25 04:14:35;;;;;;;7.93;1.75;;;11.30;90.30;;;;;;4894981;29;20040;-79
2023/12/25 04:17:01;;;;;;;8.23;1.58;;;11.30;90.40;;;;;;4894065;29;20072;-79
2023/12/25 04:19:27;;;;;;;9.00;1.58;;;11.30;90.40;;;;;;4885264;29;20123;-79
2023/12/25 04:21:52;;;;;;;8.35;1.75;;;11.30;90.50;;;;;;4885460;29;20407;-79
2023/12/25 04:24:18;;;;;;;9.65;1.42;;;11.30;90.50;;;;;;4881746;29;20036;-79
2023/12/25 04:26:43;;;;;;;9.32;1.60;;;11.30;90.50;;;;;;4881160;29;20606;-79
2023/12/25 04:29:09;;;;;;;9.25;1.92;;;11.40;90.60;;;;;;4876031;29;20041;-79
2023/12/25 04:31:35;;;;;;;3.65;1.10;;;11.30;90.60;;;;;;4861434;29;20141;-79
2023/12/25 04:34:00;;;;;;;8.48;1.38;;;11.30;90.70;;;;;;4876953;29;20045;-79
2023/12/25 04:36:26;;;;;;;11.73;1.70;;;11.40;90.70;;;;;;4875806;29;20089;-79
2023/12/25 04:38:51;;;;;;;5.35;1.05;;;11.30;90.70;;;;;;4877824;29;20108;-79
2023/12/25 04:41:23;;;;;;;8.38;1.35;;;11.40;90.70;;;;;;4876667;29;20120;-79
2023/12/25 04:43:50;;;;;;;7.82;1.23;;;11.40;90.70;;;;;;4897577;29;20385;-79
2023/12/25 04:46:16;;;;;;;6.80;1.25;;;11.40;90.70;;;;;;4877471;29;20085;-79
2023/12/25 04:48:42;;;;;;;6.78;1.20;;;11.40;90.70;;;;;;4877242;29;20040;-79
2023/12/25 04:51:08;;;;;;;5.05;0.85;;;11.40;90.70;;;;;;4877919;29;20045;-79
2023/12/25 04:53:34;;;;;;;7.07;1.13;;;11.40;90.70;;;;;;4882131;29;20040;-79
2023/12/25 04:56:00;;;;;;;9.85;1.33;;;11.40;90.70;;;;;;4878529;29;20079;-79
2023/12/25 04:58:26;;;;;;;7.97;1.40;;;11.40;90.70;;;;;;4878612;29;20068;-79
2023/12/25 05:00:52;;;;;;;5.32;1.00;;;11.40;90.70;;;;;;4869217;29;20052;-79
2023/12/25 05:03:19;;;;;;;7.10;1.10;;;11.40;90.70;;;;;;4879432;29;20049;-79
2023/12/25 05:05:44;;;;;;;7.03;1.80;;;11.40;90.70;;;;;;4889212;29;20496;-79
2023/12/25 05:08:10;;;;;;;5.43;1.42;;;11.40;90.70;;;;;;4874210;29;20048;-79
2023/12/25 05:10:35;;;;;;;6.03;1.42;;;11.40;90.70;;;;;;4875761;29;20041;-79
2023/12/25 05:13:01;;;;;;;4.53;1.00;;;11.40;90.70;;;;;;4883427;29;20072;-79
2023/12/25 05:15:27;;;;;;;4.97;1.65;;;11.40;90.60;;;;;;4875968;29;20057;-79
2023/12/25 05:17:53;;;;;;;5.38;1.15;;;11.40;90.60;;;;;;4883625;29;20037;-79
2023/12/25 05:20:18;;;;;;;6.22;1.23;;;11.40;90.60;;;;;;4878003;29;20516;-79
2023/12/25 05:22:44;;;;;;;7.70;1.30;;;11.40;90.60;;;;;;4874135;29;20045;-79
2023/12/25 05:25:10;;;;;;;8.52;1.70;;;11.40;90.60;;;;;;4881084;29;20140;-79
2023/12/25 05:27:35;;;;;;;6.03;1.58;;;11.40;90.60;;;;;;4879805;29;20047;-79
2023/12/25 05:30:01;;;;;;;5.22;1.20;;;11.40;90.60;;;;;;4877115;29;20058;-79
2023/12/25 05:32:28;;;;;;;7.55;1.77;;;11.40;90.60;;;;;;4881277;29;20037;-79
2023/12/25 05:34:54;;;;;;;7.97;1.33;;;11.40;90.60;;;;;;4880404;29;20041;-79
2023/12/25 05:37:20;;;;;;;8.07;1.77;;;11.40;90.60;;;;;;4880592;29;20060;-79
2023/12/25 05:39:46;;;;;;;7.63;1.98;;;11.40;90.60;;;;;;4877825;29;20045;-79
2023/12/25 05:42:11;;;;;;;10.55;1.88;;;11.40;90.60;;;;;;4879814;29;20413;-79
2023/12/25 05:44:37;;;;;;;6.35;1.60;;;11.40;90.60;;;;;;4880817;29;20077;-79
2023/12/25 05:47:02;;;;;;;9.70;1.63;;;11.40;90.50;;;;;;4882379;29;20040;-79
2023/12/25 05:49:29;;;;;;;12.20;2.20;;;11.40;90.50;;;;;;4883228;29;20037;-79
2023/12/25 05:51:54;;;;;;;6.13;1.67;;;11.40;90.50;;;;;;4877527;29;20037;-79
2023/12/25 05:54:20;;;;;;;9.70;1.60;;;11.40;90.50;;;;;;4876544;29;20073;-79
2023/12/25 05:56:45;;;;;;;8.65;1.58;;;11.40;90.50;;;;;;4874097;29;20045;-79
2023/12/25 05:59:11;;;;;;;9.57;1.92;;;11.30;90.40;;;;;;4878880;29;20045;-79
2023/12/25 06:01:37;;;;;;;9.85;1.73;;;11.30;90.40;;;;;;4878656;29;20045;-79
2023/12/25 06:04:02;;;;;;;7.63;1.50;;;11.30;90.40;;;;;;4879850;29;20496;-79
2023/12/25 06:06:28;;;;;;;7.20;1.60;;;11.30;90.30;;;;;;4879054;29;20044;-79
2023/12/25 06:08:53;;;;;;;8.48;1.88;;;11.30;90.40;;;;;;4874840;29;20127;-79
2023/12/25 06:11:19;;;;;;;8.27;1.85;;;11.30;90.40;;;;;;4872318;29;20455;-79
2023/12/25 06:13:45;;;;;;;7.63;2.10;;;11.30;90.40;;;;;;4873530;29;20128;-79
2023/12/25 06:16:10;;;;;;;10.45;2.17;;;11.30;90.40;;;;;;4855224;29;20057;-79
2023/12/25 06:18:36;;;;;;;6.68;1.30;;;11.60;90.50;;;;;;4873695;29;20436;-79
2023/12/25 06:21:02;;;;;;;9.20;1.77;;;11.30;90.40;;;;;;4878466;29;20481;-79
2023/12/25 06:23:27;;;;;;;11.95;2.30;;;11.30;90.40;;;;;;4876464;29;20085;-79
2023/12/25 06:25:53;;;;;;;10.95;1.75;;;11.30;90.40;;;;;;4872463;29;20100;-79
2023/12/25 06:28:19;;;;;;;7.72;1.42;;;11.30;90.50;;;;;;4873206;29;20038;-79
2023/12/25 06:30:45;;;;;;;8.10;1.45;;;11.30;90.50;;;;;;4874192;29;20049;-79
2023/12/25 06:33:10;;;;;;;8.63;1.50;;;11.30;90.50;;;;;;4857812;29;20048;-79
2023/12/25 06:35:36;;;;;;;11.25;1.98;;;11.30;90.50;;;;;;4878177;29;20044;-79
2023/12/25 06:38:01;;;;;;;9.25;2.15;;;11.30;90.40;;;;;;4870868;29;20045;-79
2023/12/25 06:40:27;;;;;;;7.47;1.48;;;11.20;90.40;;;;;;4876445;29;20497;-79
2023/12/25 06:42:52;;;;;;;9.00;1.50;;;11.20;90.40;;;;;;4873839;29;20511;-79
2023/12/25 06:45:18;;;;;;;6.35;1.20;;;11.20;90.40;;;;;;4874039;29;20096;-79
2023/12/25 06:47:44;;;;;;;8.10;1.80;;;11.20;90.40;;;;;;4876430;29;20072;-80
2023/12/25 06:50:09;;;;;;;9.93;1.42;;;11.20;90.40;;;;;;4871640;29;20042;-79
2023/12/25 06:52:35;;;;;;;6.78;1.42;;;11.20;90.40;;;;;;4873111;29;20037;-79
2023/12/25 06:55:01;;;;;;;9.57;2.13;;;11.20;90.40;;;;;;4871602;29;20085;-79
2023/12/25 06:57:27;;;;;;;7.75;1.60;;;11.20;90.40;;;;;;4873562;29;20102;-80
2023/12/25 06:59:52;;;;;;;9.55;2.05;;;11.10;90.40;;;;;;4881196;29;20437;-79
2023/12/25 07:02:18;;;;;;;6.32;1.52;;;11.10;90.40;;;;;;4876912;29;20155;-79
2023/12/25 07:04:44;;;;;;;9.15;2.22;;;11.10;90.50;;;;;;4885204;29;20044;-79
2023/12/25 07:07:09;;;;;;;7.50;1.98;;;11.10;90.50;;;;;;4877353;29;20060;-79
2023/12/25 07:09:35;;;;;;;9.73;1.63;;;11.00;90.40;;;;;;4862630;29;20051;-79
2023/12/25 07:12:02;;;;;;;5.13;1.40;;;11.00;90.40;;;;;;4876342;29;20049;-80
2023/12/25 07:14:27;;;;;;;7.68;1.60;;;11.10;90.50;;;;;;4877220;29;20041;-79
2023/12/25 07:16:53;;;;;;;11.82;2.35;;;11.30;90.50;;;;;;4879020;29;20049;-79
2023/12/25 07:19:19;;;;;;;13.60;1.90;;;11.00;90.40;;;;;;4879322;29;20120;-79
2023/12/25 07:21:44;;;;;;;6.80;1.33;;;11.00;90.40;;;;;;4879275;29;20043;-79
2023/12/25 07:24:10;;;;;;;8.57;1.70;;;10.90;90.40;;;;;;4881048;29;20131;-79
2023/12/25 07:26:35;;;;;;;9.60;1.50;;;10.90;90.40;;;;;;4900150;29;20488;-79
2023/12/25 07:29:01;;;;;;;10.93;2.42;;;10.90;90.30;;;;;;4882726;29;20048;-79
2023/12/25 07:31:27;;;;;;;10.63;2.22;;;10.90;90.30;;;;;;4884542;29;20099;-79
2023/12/25 07:33:53;;;;;;;10.18;1.85;;;10.80;90.20;;;;;;4883134;29;20115;-79
2023/12/25 07:36:19;;;;;;;8.20;2.05;;;10.80;90.10;;;;;;4865044;29;20552;-79
2023/12/25 07:38:45;;;;;;;7.38;1.33;;;10.80;90.10;;;;;;4878607;29;20044;-79
2023/12/25 07:41:11;;;;;;;8.38;1.52;;;10.70;90.10;;;;;;4884689;29;20057;-79
2023/12/25 07:43:38;;;;;;;8.73;1.52;;;10.70;90.10;;;;;;4880585;29;20040;-79
2023/12/25 07:46:08;;;;;;;8.93;1.40;;;10.70;90.10;;;;;;4898047;29;20041;-79
2023/12/25 07:48:34;;;;;;;6.07;1.60;;;10.70;90.10;;;;;;4897558;29;20032;-79
2023/12/25 07:51:00;;;;;;;5.22;1.40;;;10.70;90.20;;;;;;4877060;29;20041;-79
2023/12/25 07:53:25;;;;;;;10.45;1.50;;;10.70;90.20;;;;;;4880393;29;20059;-79
2023/12/25 07:55:51;;;;;;;4.47;1.33;;;10.70;90.20;;;;;;4881701;29;20437;-79
2023/12/25 07:58:16;;;;;;;6.07;1.05;;;10.70;90.20;;;;;;4881662;29;20048;-79
2023/12/25 08:00:42;;;;;;;6.57;1.30;;;10.70;90.20;;;;;;4880113;29;20041;-79
2023/12/25 08:03:10;;;;;;;7.25;1.15;;;10.90;90.20;;;;;;4876146;29;20086;-79
2023/12/25 08:05:35;;;;;;;7.20;1.40;;;10.60;90.10;;;;;;4880781;29;20043;-79
2023/12/25 08:08:01;;;;;;;10.57;1.20;;;10.60;90.10;;;;;;4875750;29;20041;-79
2023/12/25 08:10:28;;;;;;;5.65;1.40;;;10.60;90.20;;;;;;4883355;29;20044;-79
2023/12/25 08:12:54;;;;;;;9.30;1.60;;;10.50;90.20;;;;;;4885669;29;20080;-79
2023/12/25 08:15:20;;;;;;;12.40;1.55;;;10.60;90.30;;;;;;4864328;29;20053;-79
2023/12/25 08:17:46;;;;;;;8.45;1.40;;;10.60;90.30;;;;;;4881891;29;20043;-79
2023/12/25 08:20:11;;;;;;;10.32;2.28;;;10.60;90.30;;;;;;4878612;29;20048;-79
2023/12/25 08:22:37;;;;;;;7.30;1.65;;;10.50;90.40;;;;;;4878695;29;20101;-79
2023/12/25 08:25:03;;;;;;;6.20;1.90;;;10.50;90.40;;;;;;4878517;29;20076;-79
2023/12/25 08:27:29;;;;;;;10.10;1.50;;;10.50;90.40;;;;;;4863055;29;20044;-79
2023/12/25 08:29:55;;;;;;;6.47;1.42;;;10.50;90.40;;;;;;4878126;29;20047;-79
2023/12/25 08:32:21;;;;;;;9.35;1.95;;;10.50;90.40;;;;;;4876092;29;20056;-79
2023/12/25 08:34:47;;;;;;;9.18;1.60;;;10.50;90.40;;;;;;4881149;29;20044;-79
2023/12/25 08:37:12;;;;;;;7.45;1.88;;;10.50;90.40;;;;;;4880897;29;20045;-80
2023/12/25 08:39:38;;;;;;;9.95;1.65;;;10.40;90.40;;;;;;4878302;29;20047;-80
2023/12/25 08:42:04;;;;;;;8.18;1.50;;;10.40;90.40;;;;;;4875594;29;20064;-79
2023/12/25 08:44:32;;;;;;;7.18;1.38;;;10.40;90.40;;;;;;4861929;29;20048;-79
2023/12/25 08:46:58;;;;;;;6.13;1.48;;;10.40;90.50;;;;;;4876167;29;20060;-79
2023/12/25 08:49:24;;;;;;;8.15;1.42;;;10.40;90.50;;;;;;4881361;29;20051;-79
2023/12/25 08:51:50;;;;;;;10.60;1.83;;;10.40;90.50;;;;;;4874742;29;20044;-79
2023/12/25 08:54:17;;;;;;;11.88;2.38;;;10.40;90.50;;;;;;4884617;29;20399;-79
2023/12/25 08:56:42;;;;;;;10.43;1.85;;;10.40;90.60;;;;;;4891210;29;20064;-80
2023/12/25 08:59:09;;;;;;;8.02;1.70;;;10.40;90.60;;;;;;4882329;29;20400;-80
2023/12/25 09:01:34;;;;;;;7.63;1.70;;;10.40;90.60;;;;;;4882886;29;20080;-80
2023/12/25 09:04:00;;;;;;;6.47;1.70;;;10.40;90.60;;;;;;4884319;29;20048;-80
2023/12/25 09:06:25;;;;;;;4.28;1.05;;;10.40;90.60;;;;;;4881559;29;20068;-79
2023/12/25 09:08:51;;;;;;;8.93;2.10;;;10.40;90.70;;;;;;4877731;29;20408;-79
2023/12/25 09:11:17;;;;;;;7.18;1.83;;;10.40;90.70;;;;;;4880465;29;20047;-79
2023/12/25 09:13:44;;;;;;;9.43;1.80;;;10.40;90.70;;;;;;4880847;29;20069;-79
2023/12/25 09:16:10;;;;;;;8.90;2.00;;;10.40;90.80;;;;;;4881699;29;20094;-80
2023/12/25 09:18:35;;;;;;;9.35;2.10;;;10.40;90.80;;;;;;4897224;29;20135;-79
2023/12/25 09:21:02;;;;;;;12.45;1.70;;;10.40;90.80;;;;;;4881479;29;20032;-80
2023/12/25 09:23:28;;;;;;;10.07;1.77;;;10.50;90.80;;;;;;4889719;29;20048;-80
2023/12/25 09:25:53;;;;;;;11.10;1.90;;;10.40;90.80;;;;;;4882417;29;20492;-80
2023/12/25 09:28:19;;;;;;;7.72;1.90;;;10.50;90.80;;;;;;4864258;29;20033;-79
2023/12/25 09:30:45;;;;;;;7.50;1.67;;;10.50;90.90;;;;;;4881351;29;20084;-79
2023/12/25 09:33:10;;;;;;;10.93;1.85;;;10.50;90.90;;;;;;4878580;29;20116;-80
2023/12/25 09:35:36;;;;;;;8.88;2.33;;;10.50;90.90;;;;;;4875024;29;20457;-80
2023/12/25 09:38:02;;;;;;;11.25;2.72;;;10.50;90.90;;;;;;4860664;29;20072;-80
2023/12/25 09:40:28;;;;;;;11.40;2.15;;;10.50;91.00;;;;;;4875502;29;20049;-79
2023/12/25 09:42:53;;;;;;;5.15;1.27;;;10.50;91.00;;;;;;4877884;29;20061;-80
2023/12/25 09:45:22;;;;;;;8.82;1.35;;;10.50;91.00;;;;;;4874917;29;20047;-80
2023/12/25 09:47:49;;;;;;;4.95;1.48;;;10.60;91.00;;;;;;4876006;29;20036;-80
2023/12/25 09:50:17;;;;;;;9.13;1.98;;;10.60;91.00;;;;;;4879704;29;20041;-80
2023/12/25 09:52:42;;;;;;;6.35;1.70;;;10.90;91.10;;;;;;4880178;29;20056;-80
2023/12/25 09:55:08;;;;;;;9.90;1.90;;;10.80;91.10;;;;;;4894683;29;20032;-80
2023/12/25 09:57:36;;;;;;;6.78;1.17;;;10.70;91.10;;;;;;4880889;29;20048;-79
2023/12/25 10:00:04;;;;;;;10.18;1.75;;;10.70;91.10;;;;;;4864368;29;20048;-79
2023/12/25 10:02:33;;;;;;;7.93;1.75;;;10.70;91.10;;;;;;4882544;29;20108;-79
2023/12/25 10:04:59;;;;;;;8.63;2.20;;;10.70;91.10;;;;;;4880261;29;20400;-80
2023/12/25 10:07:25;;;;;;;5.60;1.50;;;10.70;91.10;;;;;;4879112;29;20040;-79
2023/12/25 10:09:53;;;;;;;8.75;1.60;;;10.80;91.10;;;;;;4880100;29;20049;-79
2023/12/25 10:12:19;;;;;;;9.07;1.88;;;10.80;91.10;;;;;;4875594;29;20545;-80
2023/12/25 10:14:45;;;;;;;7.78;1.90;;;10.80;91.00;;;;;;4878053;29;20147;-79
2023/12/25 10:17:11;;;;;;;9.02;2.35;;;10.90;91.00;;;;;;4875492;29;20071;-79
2023/12/25 10:19:52;;;;;;;15.30;2.58;;;10.90;91.00;;;;;;4879829;29;20033;-79
2023/12/25 10:22:44;;;;;;;6.72;1.52;;;10.90;91.00;;;;;;4894947;29;20129;-79
2023/12/25 10:25:15;;;;;;;8.07;2.10;;;11.00;91.00;;;;;;4875190;29;20059;-79
2023/12/25 10:27:43;;;;;;;10.93;2.42;;;11.60;91.20;;;;;;4876470;29;20396;-79
2023/12/25 10:30:20;;;;;;;9.75;2.17;;;11.10;91.10;;;;;;4877321;29;20053;-79
2023/12/25 10:32:47;;;;;;;11.25;2.75;;;11.00;91.00;;;;;;4874811;29;20080;-80
2023/12/25 10:35:22;;;;;;;11.35;2.10;;;11.10;90.90;;;;;;4902269;29;20396;-79
2023/12/25 10:37:47;;;;;;;11.40;2.30;;;11.10;90.90;;;;;;4881346;29;20390;-80
2023/12/25 10:40:25;;;;;;;12.25;2.63;;;11.10;90.80;;;;;;4881865;29;20055;-80
2023/12/25 10:42:53;;;;;;;6.25;2.03;;;11.10;90.80;;;;;;4904504;29;20044;-79
2023/12/25 10:45:27;;;;;;;9.82;2.25;;;11.20;90.80;;;;;;4887491;29;20496;-80
2023/12/25 10:48:02;;;;;;;9.67;2.07;;;11.40;90.80;;;;;;4869075;29;20092;-81
2023/12/25 10:50:31;;;;;;;8.80;1.70;;;11.20;90.70;;;;;;4883798;29;20044;-81
2023/12/25 10:53:01;;;;;;;8.98;1.70;;;11.20;90.70;;;;;;4881045;29;20541;-80
2023/12/25 10:55:40;;;;;;;6.43;1.52;;;11.20;90.60;;;;;;4881078;29;20032;-80
2023/12/25 10:58:08;;;;;;;8.90;1.88;;;11.20;90.60;;;;;;4879476;29;20037;-80
2023/12/25 11:00:43;;;;;;;9.77;2.90;;;11.70;90.70;;;;;;4882369;29;20044;-80
2023/12/25 11:03:13;;;;;;;7.55;1.65;;;11.20;90.50;;;;;;4881361;29;20052;-81
2023/12/25 11:05:40;;;;;;;10.70;2.60;;;11.20;90.40;;;;;;4879210;29;20037;-80
2023/12/25 11:08:06;;;;;;;7.15;2.40;;;11.70;90.60;;;;;;4882670;29;20056;-80
2023/12/25 11:10:32;;;;;;;5.22;1.42;;;11.30;90.40;;;;;;4879256;29;20440;-80
2023/12/25 11:12:58;;;;;;;8.55;2.00;;;11.30;90.40;;;;;;4881497;29;20119;-80
2023/12/25 11:15:24;;;;;;;9.68;1.50;;;11.40;90.50;;;;;;4885350;29;20427;-80
2023/12/25 11:17:50;;;;;;;8.63;2.38;;;11.50;90.50;;;;;;4882030;29;20116;-86
2023/12/25 11:20:16;;;;;;;12.35;2.70;;;11.30;90.50;;;;;;4885375;29;20041;-80
2023/12/25 11:22:44;;;;;;;8.65;2.10;;;11.30;90.60;;;;;;4883655;29;20037;-80
2023/12/25 11:25:17;;;;;;;14.13;2.75;;;11.40;90.50;;;;;;4880549;29;20033;-80
2023/12/25 11:27:49;;;;;;;8.00;2.42;;;11.30;90.50;;;;;;4876691;29;20512;-80
2023/12/25 11:30:17;;;;;;;13.82;2.30;;;11.30;90.50;;;;;;4882701;29;20389;-80
2023/12/25 11:32:45;;;;;;;11.32;2.75;;;11.30;90.50;;;;;;4880956;29;20048;-80
2023/12/25 11:35:15;;;;;;;11.23;2.17;;;11.30;90.60;;;;;;4882942;29;20062;-79
2023/12/25 11:37:41;;;;;;;11.70;2.35;;;11.30;90.60;;;;;;4891936;29;20036;-79
2023/12/25 11:40:08;;;;;;;11.70;2.38;;;11.30;90.60;;;;;;4883068;29;20079;-79
2023/12/25 11:42:37;;;;;;;13.30;2.25;;;11.40;90.60;;;;;;4881148;29;20044;-79
2023/12/25 11:45:07;;;;;;;9.13;1.80;;;11.40;90.70;;;;;;4882348;29;20571;-79
2023/12/25 11:47:44;;;;;;;10.15;2.17;;;11.40;90.70;;;;;;4899794;29;20057;-79
2023/12/25 11:50:14;;;;;;;6.72;1.63;;;11.40;90.80;;;;;;4899888;29;20044;-80
2023/12/25 11:52:43;;;;;;;9.90;2.08;;;11.40;90.80;;;;;;4881227;29;20096;-78
2023/12/25 11:55:19;;;;;;;12.13;2.10;;;11.60;90.90;;;;;;4879959;29;20058;-79
2023/12/25 11:57:45;;;;;;;10.27;2.17;;;11.40;90.90;;;;;;4892503;29;20037;-79
2023/12/25 12:00:19;;;;;;;14.68;2.60;;;11.40;90.90;;;;;;4895823;29;20153;-78
2023/12/25 12:02:46;;;;;;;;;;;11.40;91.00;;;;;;4879011;29;20038;-78
2023/12/25 12:05:12;;;;;;;12.65;2.97;;;11.40;90.90;;;;;;4880746;29;19946;-78
2023/12/25 12:07:38;;;;;;;8.10;2.17;;;11.40;91.10;;;;;;4895100;29;20127;-79
2023/12/25 12:10:05;;;;;;;9.63;1.88;;;11.50;91.10;;;;;;4880720;29;20135;-78
2023/12/25 12:12:31;;;;;;;9.80;2.42;;;11.50;91.10;;;;;;4880906;29;20041;-78
2023/12/25 12:14:56;;;;;;;9.38;2.53;;;11.50;91.10;;;;;;4879004;29;20052;-78
2023/12/25 12:17:22;;;;;;;12.10;2.28;;;11.60;91.20;;;;;;4894170;29;20048;-78
2023/12/25 12:19:49;;;;;;;11.07;1.92;;;11.60;91.30;;;;;;4895154;29;20056;-78
2023/12/25 12:22:17;;;;;;;7.55;1.58;;;11.60;91.30;;;;;;4898256;29;20048;-78
2023/12/25 12:24:43;;;;;;;13.45;2.75;;;11.70;91.30;;;;;;4879173;29;20041;-79
2023/12/25 12:27:11;;;;;;;9.60;2.03;;;11.70;91.30;;;;;;4893746;29;20037;-78
2023/12/25 12:29:37;;;;;;;10.10;2.10;;;11.80;91.40;;;;;;4877672;29;20179;-79
2023/12/25 12:32:04;;;;;;;8.70;1.85;;;11.80;91.40;;;;;;4894833;29;20032;-78
2023/12/25 12:34:29;;;;;;;12.95;2.38;;;11.80;91.40;;;;;;4896747;29;20052;-79
2023/12/25 12:37:05;;;;;;;12.65;2.15;;;11.80;91.30;;;;;;4860963;29;20045;-79
2023/12/25 12:39:34;;;;;;;7.05;1.80;;;11.90;91.30;;;;;;4894128;29;20135;-79